createdAt,value
2018-01-02T00:01:45.761Z,5.90
2018-01-02T00:04:14.066Z,6.00
2018-01-02T00:06:41.599Z,6.00
2018-01-02T00:09:09.895Z,6.10
2018-01-02T00:11:37.751Z,6.10
2018-01-02T00:14:06.049Z,6.10
2018-01-02T00:16:33.571Z,6.10
2018-01-02T00:19:01.899Z,6.10
2018-01-02T00:21:29.429Z,6.10
2018-01-02T00:23:57.016Z,6.10
2018-01-02T00:26:24.566Z,6.10
2018-01-02T00:28:52.094Z,6.00
2018-01-02T00:31:20.397Z,6.00
2018-01-02T00:33:47.935Z,6.00
2018-01-02T00:36:16.233Z,6.00
2018-01-02T00:38:43.755Z,6.00
2018-01-02T00:41:12.059Z,6.00
2018-01-02T00:43:39.590Z,6.00
2018-01-02T00:46:07.107Z,6.10
2018-01-02T00:48:34.652Z,6.10
2018-01-02T00:51:02.181Z,6.10
2018-01-02T00:53:30.488Z,6.10
2018-01-02T00:55:58.042Z,6.10
2018-01-02T00:58:25.568Z,6.10
2018-01-02T01:00:53.846Z,6.10
2018-01-02T01:03:22.171Z,6.10
2018-01-02T01:05:49.713Z,6.10
2018-01-02T01:08:17.249Z,6.10
2018-01-02T01:10:45.569Z,6.10
2018-01-02T01:13:13.125Z,6.10
2018-01-02T01:15:40.886Z,6.10
2018-01-02T01:18:08.480Z,6.10
2018-01-02T01:20:36.013Z,6.10
2018-01-02T01:23:03.526Z,6.10
2018-01-02T01:25:31.075Z,6.10
2018-01-02T01:27:59.370Z,6.10
2018-01-02T01:30:26.900Z,6.10
2018-01-02T01:32:55.207Z,6.10
2018-01-02T01:35:22.969Z,6.10
2018-01-02T01:37:50.548Z,6.10
2018-01-02T01:40:18.087Z,6.10
2018-01-02T01:42:45.626Z,6.10
2018-01-02T01:45:13.165Z,6.00
2018-01-02T01:47:40.703Z,6.00
2018-01-02T01:50:08.564Z,5.90
2018-01-02T01:52:36.074Z,5.80
2018-01-02T01:55:04.385Z,5.70
2018-01-02T01:57:31.918Z,5.70
2018-01-02T01:59:59.456Z,5.70
2018-01-02T02:02:27.763Z,5.70
2018-01-02T02:04:55.292Z,5.60
2018-01-02T02:07:23.575Z,5.60
2018-01-02T02:09:51.878Z,5.50
2018-01-02T02:12:19.395Z,5.50
2018-01-02T02:14:47.689Z,5.50
2018-01-02T02:17:16.002Z,5.50
2018-01-02T02:19:43.771Z,5.50
2018-01-02T02:22:11.337Z,5.50
2018-01-02T02:24:38.876Z,5.50
2018-01-02T02:27:06.655Z,5.50
2018-01-02T02:29:34.171Z,5.50
2018-01-02T02:32:02.488Z,5.50
2018-01-02T02:34:30.013Z,5.50
2018-01-02T02:36:57.531Z,5.50
2018-01-02T02:39:26.593Z,5.40
2018-01-02T02:41:54.125Z,5.40
2018-01-02T02:44:21.922Z,5.40
2018-01-02T02:46:50.646Z,5.40
2018-01-02T02:49:19.286Z,5.40
2018-01-02T02:51:46.816Z,5.40
2018-01-02T02:54:14.381Z,5.40
2018-01-02T02:56:41.903Z,5.30
2018-01-02T02:59:09.433Z,5.30
2018-01-02T03:01:37.297Z,5.30
2018-01-02T03:04:04.825Z,5.40
2018-01-02T03:06:32.343Z,5.40
2018-01-02T03:09:01.001Z,5.50
2018-01-02T03:11:28.515Z,5.50
2018-01-02T03:13:56.027Z,5.60
2018-01-02T03:16:23.567Z,5.60
2018-01-02T03:18:51.078Z,5.60
2018-01-02T03:21:19.373Z,5.60
2018-01-02T03:23:46.911Z,5.60
2018-01-02T03:26:15.194Z,5.60
2018-01-02T03:28:43.479Z,5.70
2018-01-02T03:31:11.020Z,5.60
2018-01-02T03:33:39.317Z,5.70
2018-01-02T03:36:07.115Z,5.70
2018-01-02T03:38:34.979Z,5.70
2018-01-02T03:41:02.505Z,5.70
2018-01-02T03:43:30.823Z,5.70
2018-01-02T03:45:58.359Z,5.80
2018-01-02T03:48:25.899Z,5.80
2018-01-02T03:50:53.415Z,5.80
2018-01-02T03:53:20.974Z,5.80
2018-01-02T03:55:48.505Z,5.80
2018-01-02T03:58:16.033Z,5.80
2018-01-02T04:00:43.592Z,5.80
2018-01-02T04:03:11.107Z,5.70
2018-01-02T04:05:38.623Z,5.70
2018-01-02T04:08:06.187Z,5.70
2018-01-02T04:10:33.717Z,5.80
2018-01-02T04:13:01.998Z,5.70
2018-01-02T04:15:29.549Z,5.70
2018-01-02T04:17:57.841Z,5.50
2018-01-02T04:20:25.373Z,5.50
2018-01-02T04:22:53.674Z,5.40
2018-01-02T04:25:21.201Z,5.30
2018-01-02T04:27:48.715Z,5.30
2018-01-02T04:30:16.285Z,5.20
2018-01-02T04:32:44.047Z,5.00
2018-01-02T04:35:11.563Z,5.00
2018-01-02T04:37:40.187Z,4.90
2018-01-02T04:40:07.700Z,4.90
2018-01-02T04:42:35.993Z,4.90
2018-01-02T04:45:03.531Z,4.90
2018-01-02T04:47:31.820Z,4.90
2018-01-02T04:49:59.339Z,4.90
2018-01-02T04:52:26.875Z,4.90
2018-01-02T04:54:54.641Z,4.90
2018-01-02T04:57:22.165Z,4.80
2018-01-02T04:59:49.705Z,4.80
2018-01-02T05:02:18.001Z,4.70
2018-01-02T05:04:45.529Z,4.70
2018-01-02T05:07:13.831Z,4.70
2018-01-02T05:09:41.347Z,4.60
2018-01-02T05:12:08.858Z,4.70
2018-01-02T05:14:36.404Z,4.70
2018-01-02T05:17:03.930Z,4.70
2018-01-02T05:19:31.457Z,4.70
2018-01-02T05:21:58.991Z,4.70
2018-01-02T05:24:26.524Z,4.70
2018-01-02T05:26:54.815Z,4.70
2018-01-02T05:29:22.351Z,4.70
2018-01-02T05:31:50.632Z,4.70
2018-01-02T05:34:18.915Z,4.70
2018-01-02T05:36:47.546Z,4.70
2018-01-02T05:39:15.077Z,4.60
2018-01-02T05:41:42.649Z,4.60
2018-01-02T05:44:10.221Z,4.60
2018-01-02T05:46:37.755Z,4.50
2018-01-02T05:49:05.281Z,4.50
2018-01-02T05:51:32.828Z,4.50
2018-01-02T05:54:00.380Z,4.50
2018-01-02T05:56:27.927Z,4.40
2018-01-02T05:58:56.123Z,4.40
2018-01-02T06:01:23.881Z,4.40
2018-01-02T06:03:51.465Z,4.40
2018-01-02T06:06:19.767Z,4.30
2018-01-02T06:08:47.301Z,4.30
2018-01-02T06:11:15.587Z,4.20
2018-01-02T06:13:43.127Z,4.10
2018-01-02T06:16:11.458Z,4.20
2018-01-02T06:18:38.975Z,4.20
2018-01-02T06:21:07.599Z,4.10
2018-01-02T06:23:35.150Z,4.00
2018-01-02T06:26:02.682Z,4.10
2018-01-02T06:28:30.217Z,4.10
2018-01-02T06:30:58.765Z,4.00
2018-01-02T06:33:26.626Z,4.00
2018-01-02T06:35:54.487Z,4.00
2018-01-02T06:38:22.031Z,4.00
2018-01-02T06:40:49.560Z,4.00
2018-01-02T06:43:17.863Z,4.10
2018-01-02T06:45:45.385Z,4.00
2018-01-02T06:48:13.677Z,4.00
2018-01-02T06:50:42.009Z,4.00
2018-01-02T06:53:09.542Z,4.00
2018-01-02T06:55:37.093Z,4.10
2018-01-02T06:58:04.636Z,4.00
2018-01-02T07:00:32.177Z,4.10
2018-01-02T07:03:00.459Z,3.90
2018-01-02T07:05:28.759Z,3.90
2018-01-02T07:07:56.407Z,3.90
2018-01-02T07:10:24.012Z,4.00
2018-01-02T07:12:51.543Z,4.00
2018-01-02T07:15:19.077Z,4.00
2018-01-02T07:17:47.372Z,4.10
2018-01-02T07:20:14.921Z,4.10
2018-01-02T07:22:42.468Z,4.20
2018-01-02T07:25:10.750Z,4.30
2018-01-02T07:27:38.584Z,4.30
2018-01-02T07:30:06.088Z,4.40
2018-01-02T07:32:33.621Z,4.50
2018-01-02T07:35:01.937Z,4.70
2018-01-02T07:37:29.474Z,4.60
2018-01-02T07:39:57.244Z,4.70
2018-01-02T07:42:24.865Z,4.70
2018-01-02T07:44:53.313Z,4.80
2018-01-02T07:47:20.888Z,4.80
2018-01-02T07:49:48.453Z,4.80
2018-01-02T07:52:16.749Z,4.80
2018-01-02T07:54:45.050Z,4.90
2018-01-02T07:57:12.587Z,4.80
2018-01-02T07:59:40.897Z,4.90
2018-01-02T08:02:08.430Z,4.90
2018-01-02T08:04:36.731Z,4.90
2018-01-02T08:07:04.403Z,4.90
2018-01-02T08:09:31.925Z,4.90
2018-01-02T08:12:00.245Z,4.90
2018-01-02T08:14:27.770Z,4.90
2018-01-02T08:16:55.326Z,4.90
2018-01-02T08:19:22.858Z,4.90
2018-01-02T08:21:50.385Z,4.90
2018-01-02T08:24:17.907Z,4.90
2018-01-02T08:26:45.443Z,4.90
2018-01-02T08:29:13.732Z,4.90
2018-01-02T08:31:42.025Z,4.90
2018-01-02T08:34:09.577Z,4.90
2018-01-02T08:36:37.095Z,4.90
2018-01-02T08:39:04.659Z,4.90
2018-01-02T08:41:33.713Z,4.90
2018-01-02T08:44:01.339Z,4.90
2018-01-02T08:46:29.633Z,5.00
2018-01-02T08:48:57.167Z,4.90
2018-01-02T08:51:24.721Z,5.00
2018-01-02T08:53:53.007Z,4.90
2018-01-02T08:56:21.367Z,5.00
2018-01-02T08:58:48.901Z,4.90
2018-01-02T09:01:16.434Z,5.00
2018-01-02T09:03:44.030Z,5.00
2018-01-02T09:06:11.545Z,5.00
2018-01-02T09:08:39.069Z,5.00
2018-01-02T09:11:07.386Z,5.00
2018-01-02T09:13:40.617Z,5.00
2018-01-02T09:16:08.191Z,5.10
2018-01-02T09:18:36.476Z,5.10
2018-01-02T09:21:05.007Z,5.20
2018-01-02T09:23:32.555Z,5.20
2018-01-02T09:26:00.106Z,5.20
2018-01-02T09:28:27.619Z,5.20
2018-01-02T09:30:55.233Z,5.30
2018-01-02T09:33:22.829Z,5.30
2018-01-02T09:35:50.348Z,5.30
2018-01-02T09:38:17.939Z,5.40
2018-01-02T09:40:45.435Z,5.40
2018-01-02T09:43:13.719Z,5.50
2018-01-02T09:45:41.251Z,5.50
2018-01-02T09:48:09.538Z,5.50
2018-01-02T09:50:37.834Z,5.50
2018-01-02T09:53:05.679Z,5.60
2018-01-02T09:55:33.842Z,5.60
2018-01-02T09:58:02.376Z,5.70
2018-01-02T10:00:30.140Z,5.70
2018-01-02T10:02:57.698Z,5.80
2018-01-02T10:05:25.235Z,5.80
2018-01-02T10:07:53.318Z,5.80
2018-01-02T10:10:20.896Z,5.90
2018-01-02T10:12:49.387Z,5.90
2018-01-02T10:15:16.946Z,6.00
2018-01-02T10:17:44.461Z,5.90
2018-01-02T10:20:12.259Z,6.00
2018-01-02T10:22:39.838Z,5.90
2018-01-02T10:25:07.356Z,6.00
2018-01-02T10:27:34.924Z,6.00
2018-01-02T10:30:02.502Z,6.00
2018-01-02T10:32:30.019Z,5.90
2018-01-02T10:34:57.609Z,6.00
2018-01-02T10:37:25.210Z,5.90
2018-01-02T10:39:53.519Z,5.90
2018-01-02T10:42:21.127Z,5.90
2018-01-02T10:44:48.677Z,5.90
2018-01-02T10:47:16.535Z,5.90
2018-01-02T10:49:44.056Z,5.80
2018-01-02T10:52:11.613Z,5.80
2018-01-02T10:54:39.131Z,5.80
2018-01-02T10:57:06.662Z,5.80
2018-01-02T10:59:34.210Z,5.80
2018-01-02T11:02:01.756Z,5.80
2018-01-02T11:04:29.587Z,5.80
2018-01-02T11:06:57.123Z,5.80
2018-01-02T11:09:24.667Z,5.80
2018-01-02T11:11:58.308Z,5.80
2018-01-02T11:14:31.625Z,5.90
2018-01-02T11:16:59.177Z,5.90
2018-01-02T11:19:27.487Z,6.00
2018-01-02T11:21:55.028Z,6.00
2018-01-02T11:24:22.585Z,6.00
2018-01-02T11:26:50.112Z,6.00
2018-01-02T11:29:17.636Z,6.00
2018-01-02T11:31:45.188Z,6.00
2018-01-02T11:34:12.718Z,6.00
2018-01-02T11:36:40.547Z,6.00
2018-01-02T11:39:08.105Z,6.00
2018-01-02T11:41:35.637Z,6.10
2018-01-02T11:44:03.169Z,6.10
2018-01-02T11:46:30.723Z,6.10
2018-01-02T11:48:58.407Z,6.20
2018-01-02T11:51:25.923Z,6.20
2018-01-02T11:53:54.227Z,6.20
2018-01-02T11:56:21.751Z,6.20
2018-01-02T11:58:50.057Z,6.30
2018-01-02T12:01:17.613Z,6.30
2018-01-02T12:03:45.218Z,6.30
2018-01-02T12:06:12.765Z,6.30
2018-01-02T12:08:40.322Z,6.30
2018-01-02T12:11:07.839Z,6.30
2018-01-02T12:13:35.374Z,6.40
2018-01-02T12:16:04.020Z,6.60
2018-01-02T12:18:31.536Z,6.50
2018-01-02T12:20:59.059Z,6.60
2018-01-02T12:23:26.615Z,6.70
2018-01-02T12:25:54.135Z,6.70
2018-01-02T12:28:21.668Z,6.70
2018-01-02T12:30:49.993Z,6.70
2018-01-02T12:33:17.530Z,6.70
2018-01-02T12:35:45.055Z,6.70
2018-01-02T12:38:13.368Z,6.70
2018-01-02T12:40:40.937Z,6.60
2018-01-02T12:43:08.703Z,6.50
2018-01-02T12:45:36.257Z,6.50
2018-01-02T12:48:03.788Z,6.30
2018-01-02T12:50:31.303Z,6.00
2018-01-02T12:52:58.852Z,5.80
2018-01-02T12:55:26.371Z,5.70
2018-01-02T12:57:53.897Z,5.50
2018-01-02T13:00:22.199Z,5.50
2018-01-02T13:02:49.796Z,5.50
2018-01-02T13:05:17.325Z,5.50
2018-01-02T13:07:44.913Z,5.40
2018-01-02T13:10:14.002Z,5.50
2018-01-02T13:12:41.564Z,5.50
2018-01-02T13:15:09.125Z,5.50
2018-01-02T13:17:36.669Z,5.60
2018-01-02T13:20:04.195Z,5.70
2018-01-02T13:22:32.505Z,6.00
2018-01-02T13:25:00.069Z,6.00
2018-01-02T13:27:27.637Z,6.10
2018-01-02T13:29:55.185Z,6.20
2018-01-02T13:32:22.730Z,6.30
2018-01-02T13:34:50.246Z,6.40
2018-01-02T13:37:18.580Z,6.30
2018-01-02T13:39:46.099Z,6.20
2018-01-02T13:42:14.392Z,6.10
2018-01-02T13:44:41.940Z,6.10
2018-01-02T13:47:09.502Z,6.10
2018-01-02T13:49:37.037Z,6.20
2018-01-02T13:52:05.356Z,6.00
2018-01-02T13:54:32.889Z,6.00
2018-01-02T13:57:01.231Z,6.00
2018-01-02T13:59:29.563Z,6.00
2018-01-02T14:01:57.099Z,6.00
2018-01-02T14:04:25.401Z,6.00
2018-01-02T14:06:52.949Z,6.00
2018-01-02T14:09:20.493Z,5.90
2018-01-02T14:11:48.785Z,5.90
2018-01-02T14:14:16.336Z,5.90
2018-01-02T14:16:43.939Z,5.90
2018-01-02T14:19:11.462Z,5.90
2018-01-02T14:21:39.015Z,6.00
2018-01-02T14:24:06.534Z,6.00
2018-01-02T14:26:34.066Z,6.10
2018-01-02T14:29:01.641Z,6.10
2018-01-02T14:31:29.154Z,6.10
2018-01-02T14:33:56.777Z,6.10
2018-01-02T14:36:24.430Z,6.00
2018-01-02T14:38:53.713Z,6.00
2018-01-02T14:41:21.253Z,6.00
2018-01-02T14:43:48.805Z,6.00
2018-01-02T14:46:16.330Z,6.00
2018-01-02T14:48:43.896Z,6.00
2018-01-02T14:51:12.201Z,5.90
2018-01-02T14:53:39.788Z,5.90
2018-01-02T14:56:07.645Z,5.90
2018-01-02T14:58:35.324Z,5.90
2018-01-02T15:01:02.842Z,5.90
2018-01-02T15:03:30.378Z,5.80
2018-01-02T15:05:58.679Z,5.90
2018-01-02T15:08:26.195Z,5.90
2018-01-02T15:10:54.780Z,5.90
2018-01-02T15:13:22.361Z,5.80
2018-01-02T15:15:50.074Z,5.80
2018-01-02T15:18:17.924Z,5.80
2018-01-02T15:20:45.800Z,5.80
2018-01-02T15:23:13.415Z,5.80
2018-01-02T15:25:40.931Z,5.80
2018-01-02T15:28:10.317Z,5.60
2018-01-02T15:30:37.832Z,5.60
2018-01-02T15:33:05.409Z,5.70
2018-01-02T15:35:33.216Z,5.70
2018-01-02T15:38:00.731Z,5.70
2018-01-02T15:40:28.286Z,5.70
2018-01-02T15:42:55.839Z,5.70
2018-01-02T15:45:23.369Z,5.70
2018-01-02T15:47:50.911Z,5.70
2018-01-02T15:50:18.713Z,5.70
2018-01-02T15:52:46.231Z,5.70
2018-01-02T15:55:13.747Z,5.70
2018-01-02T15:57:41.369Z,5.70
2018-01-02T16:00:09.673Z,5.70
2018-01-02T16:02:37.213Z,5.60
2018-01-02T16:05:05.523Z,5.60
2018-01-02T16:07:33.056Z,5.60
2018-01-02T16:10:01.484Z,5.60
2018-01-02T16:12:29.138Z,5.60
2018-01-02T16:14:56.686Z,5.50
2018-01-02T16:17:24.360Z,5.50
2018-01-02T16:19:51.913Z,5.50
2018-01-02T16:22:19.541Z,5.50
2018-01-02T16:24:47.143Z,5.40
2018-01-02T16:27:15.003Z,5.40
2018-01-02T16:29:42.530Z,5.30
2018-01-02T16:32:10.087Z,5.30
2018-01-02T16:34:37.761Z,5.30
2018-01-02T16:37:05.561Z,5.30
2018-01-02T16:39:33.093Z,5.30
2018-01-02T16:42:00.631Z,5.20
2018-01-02T16:44:28.219Z,5.20
2018-01-02T16:46:57.243Z,5.30
2018-01-02T16:49:35.427Z,5.30
2018-01-02T16:52:04.893Z,5.30
2018-01-02T16:54:34.072Z,5.30
2018-01-02T16:57:02.592Z,5.30
2018-01-02T16:59:32.113Z,5.30
2018-01-02T17:02:01.889Z,5.30
2018-01-02T17:04:31.894Z,5.30
2018-01-02T17:07:01.997Z,5.30
2018-01-02T17:09:32.120Z,5.30
2018-01-02T17:12:01.754Z,5.30
2018-01-02T17:14:30.890Z,5.40
2018-01-02T17:17:00.808Z,5.40
2018-01-02T17:19:31.850Z,5.40
2018-01-02T17:22:02.099Z,5.40
2018-01-02T17:24:31.179Z,5.40
2018-01-02T17:27:01.968Z,5.40
2018-01-02T17:29:32.411Z,5.40
2018-01-02T17:32:02.416Z,5.40
2018-01-02T17:34:33.847Z,5.40
2018-01-02T17:37:03.357Z,5.40
2018-01-02T17:39:32.711Z,5.30
2018-01-02T17:42:02.596Z,5.30
2018-01-02T17:44:32.286Z,5.40
2018-01-02T17:47:01.344Z,5.40
2018-01-02T17:49:30.293Z,5.40
2018-01-02T17:51:59.479Z,5.40
2018-01-02T17:54:28.846Z,5.40
2018-01-02T17:56:58.498Z,5.50
2018-01-02T17:59:27.879Z,5.40
2018-01-02T18:01:57.559Z,5.50
2018-01-02T18:04:27.845Z,5.50
2018-01-02T18:06:58.179Z,5.50
2018-01-02T18:09:27.479Z,5.60
2018-01-02T18:11:56.153Z,5.60
2018-01-02T18:14:24.589Z,5.60
2018-01-02T18:16:53.757Z,5.60
2018-01-02T18:19:23.163Z,5.60
2018-01-02T18:21:52.976Z,5.60
2018-01-02T18:24:22.269Z,5.60
2018-01-02T18:26:52.998Z,5.70
2018-01-02T18:29:22.547Z,5.60
2018-01-02T18:31:52.134Z,5.70
2018-01-02T18:34:21.611Z,5.70
2018-01-02T18:36:52.117Z,5.70
2018-01-02T18:39:20.902Z,5.60
2018-01-02T18:41:51.788Z,5.60
2018-01-02T18:44:22.558Z,5.60
2018-01-02T18:46:52.172Z,5.60
2018-01-02T18:49:21.442Z,5.60
2018-01-02T18:51:50.770Z,5.60
2018-01-02T18:54:18.327Z,5.60
2018-01-02T18:56:46.106Z,5.60
2018-01-02T18:59:13.766Z,5.60
2018-01-02T19:01:41.618Z,5.60
2018-01-02T19:04:09.149Z,5.70
2018-01-02T19:06:36.722Z,5.70
2018-01-02T19:09:04.239Z,5.60
2018-01-02T19:11:31.764Z,5.70
2018-01-02T19:13:59.318Z,5.70
2018-01-02T19:19:01.823Z,5.70
2018-01-02T19:21:29.351Z,5.70
2018-01-02T19:23:56.867Z,5.70
2018-01-02T19:26:24.405Z,5.80
2018-01-02T19:28:51.923Z,5.80
2018-01-02T19:31:19.456Z,5.80
2018-01-02T19:33:47.754Z,6.00
2018-01-02T19:36:15.690Z,5.90
2018-01-02T19:38:44.400Z,6.00
2018-01-02T19:41:13.146Z,6.00
2018-01-02T19:43:42.244Z,6.10
2018-01-02T19:46:10.276Z,6.00
2018-01-02T19:48:38.169Z,6.10
2018-01-02T19:51:06.297Z,6.00
2018-01-02T19:53:34.429Z,6.00
2018-01-02T19:56:04.029Z,6.10
2018-01-02T19:58:32.523Z,6.10
2018-01-02T20:01:02.035Z,6.10
2018-01-02T20:03:31.017Z,6.10
2018-01-02T20:05:59.353Z,6.10
2018-01-02T20:08:27.838Z,6.10
2018-01-02T20:10:55.851Z,6.10
2018-01-02T20:13:24.702Z,6.10
2018-01-02T20:15:52.876Z,6.10
2018-01-02T20:18:26.852Z,6.10
2018-01-02T20:20:55.685Z,6.10
2018-01-02T20:23:24.646Z,6.10
2018-01-02T20:25:53.963Z,6.10
2018-01-02T20:28:22.275Z,6.10
2018-01-02T20:30:51.028Z,6.00
2018-01-02T20:33:19.154Z,6.00
2018-01-02T20:35:47.227Z,6.10
2018-01-02T20:38:17.122Z,6.00
2018-01-02T20:40:46.527Z,6.00
2018-01-02T20:43:16.019Z,6.00
2018-01-02T20:45:43.746Z,6.00
2018-01-02T20:48:13.064Z,5.80
2018-01-02T20:50:41.241Z,5.80
2018-01-02T20:53:09.332Z,5.80
2018-01-02T20:55:37.014Z,5.80
2018-01-02T20:58:06.827Z,5.60
2018-01-02T21:00:35.576Z,5.60
2018-01-02T21:03:04.509Z,5.60
2018-01-02T21:05:32.571Z,5.60
2018-01-02T21:08:00.398Z,5.50
2018-01-02T21:10:29.313Z,5.50
2018-01-02T21:12:58.047Z,5.40
2018-01-02T21:15:26.851Z,5.40
2018-01-02T21:17:55.024Z,5.40
2018-01-02T21:20:23.133Z,5.40
2018-01-02T21:22:51.379Z,5.30
2018-01-02T21:25:19.866Z,5.40
2018-01-02T21:27:47.807Z,5.30
2018-01-02T21:30:16.873Z,5.30
2018-01-02T21:32:44.513Z,5.30
2018-01-02T21:35:12.581Z,5.30
2018-01-02T21:37:40.832Z,5.30
2018-01-02T21:40:09.049Z,5.30
2018-01-02T21:42:37.776Z,5.50
2018-01-02T21:45:05.524Z,5.40
2018-01-02T21:47:34.602Z,5.40
2018-01-02T21:50:03.855Z,5.40
2018-01-02T21:52:32.653Z,5.50
2018-01-02T21:55:01.036Z,5.40
2018-01-02T21:57:29.285Z,5.40
2018-01-02T21:59:58.288Z,5.40
2018-01-02T22:02:27.263Z,5.50
2018-01-02T22:04:56.673Z,5.40
2018-01-02T22:07:25.345Z,5.40
2018-01-02T22:09:53.489Z,5.40
2018-01-02T22:12:23.022Z,5.40
2018-01-02T22:14:51.119Z,5.40
2018-01-02T22:17:20.003Z,5.30
2018-01-02T22:19:48.054Z,5.30
2018-01-02T22:22:16.145Z,5.30
2018-01-02T22:24:45.158Z,5.30
2018-01-02T22:27:12.849Z,5.30
2018-01-02T22:29:40.959Z,5.30
2018-01-02T22:32:08.988Z,5.30
2018-01-02T22:34:37.616Z,5.30
2018-01-02T22:37:06.415Z,5.40
2018-01-02T22:39:36.032Z,5.40
2018-01-02T22:42:04.472Z,5.40
2018-01-02T22:44:32.302Z,5.40
2018-01-02T22:47:01.110Z,5.50
2018-01-02T22:49:30.656Z,5.50
2018-01-02T22:51:58.816Z,5.50
2018-01-02T22:54:28.118Z,5.50
2018-01-02T22:56:57.773Z,5.50
2018-01-02T22:59:26.089Z,5.60
2018-01-02T23:01:55.259Z,5.60
2018-01-02T23:04:24.134Z,5.50
2018-01-02T23:06:53.270Z,5.50
2018-01-02T23:09:21.060Z,5.40
2018-01-02T23:11:49.226Z,5.40
2018-01-02T23:14:17.009Z,5.50
2018-01-02T23:16:45.891Z,5.40
2018-01-02T23:19:14.340Z,5.40
2018-01-02T23:21:42.268Z,5.40
2018-01-02T23:24:10.312Z,5.50
2018-01-02T23:26:38.871Z,5.50
2018-01-02T23:29:07.397Z,5.40
2018-01-02T23:31:35.287Z,5.50
2018-01-02T23:34:04.438Z,5.30
2018-01-02T23:36:32.815Z,5.30
2018-01-02T23:39:00.876Z,5.30
2018-01-02T23:41:30.762Z,5.30
2018-01-02T23:43:59.016Z,5.20
2018-01-02T23:46:30.244Z,5.20
2018-01-02T23:48:58.106Z,5.20
2018-01-02T23:51:26.095Z,5.20
2018-01-02T23:53:55.282Z,5.30
2018-01-02T23:56:23.217Z,5.20
2018-01-02T23:58:51.179Z,5.20
